sensor_id;sensor_type;location;lat;lon;timestamp;P1;durP1;ratioP1;P2;durP2;ratioP2
12171;SDS011;6149;52.418;13.668;2022-09-09T00:01:51;7.57;;;6.87;;
12171;SDS011;6149;52.418;13.668;2022-09-09T00:04:28;6.87;;;6.27;;
12171;SDS011;6149;52.418;13.668;2022-09-09T00:06:59;9.17;;;7.10;;
12171;SDS011;6149;52.418;13.668;2022-09-09T00:09:33;7.07;;;6.37;;
12171;SDS011;6149;52.418;13.668;2022-09-09T00:12:10;7.97;;;7.17;;
12171;SDS011;6149;52.418;13.668;2022-09-09T00:14:42;7.07;;;6.47;;
12171;SDS011;6149;52.418;13.668;2022-09-09T00:17:19;7.70;;;7.00;;
12171;SDS011;6149;52.418;13.668;2022-09-09T00:20:01;7.97;;;6.47;;
12171;SDS011;6149;52.418;13.668;2022-09-09T00:22:35;6.83;;;6.13;;
12171;SDS011;6149;52.418;13.668;2022-09-09T00:25:09;7.23;;;6.63;;
12171;SDS011;6149;52.418;13.668;2022-09-09T00:27:43;7.50;;;6.53;;
12171;SDS011;6149;52.418;13.668;2022-09-09T00:30:14;6.90;;;6.30;;
12171;SDS011;6149;52.418;13.668;2022-09-09T00:32:47;6.40;;;5.80;;
12171;SDS011;6149;52.418;13.668;2022-09-09T00:35:18;5.93;;;5.33;;
12171;SDS011;6149;52.418;13.668;2022-09-09T00:37:51;7.43;;;6.53;;
12171;SDS011;6149;52.418;13.668;2022-09-09T00:40:23;6.73;;;6.03;;
12171;SDS011;6149;52.418;13.668;2022-09-09T00:43:00;6.33;;;5.73;;
12171;SDS011;6149;52.418;13.668;2022-09-09T00:45:48;8.07;;;6.13;;
12171;SDS011;6149;52.418;13.668;2022-09-09T00:48:32;5.23;;;4.83;;
12171;SDS011;6149;52.418;13.668;2022-09-09T00:51:13;6.90;;;6.30;;
12171;SDS011;6149;52.418;13.668;2022-09-09T00:53:55;5.43;;;5.03;;
12171;SDS011;6149;52.418;13.668;2022-09-09T00:56:40;5.33;;;4.83;;
12171;SDS011;6149;52.418;13.668;2022-09-09T00:59:28;6.73;;;6.03;;
12171;SDS011;6149;52.418;13.668;2022-09-09T01:02:07;6.80;;;6.10;;
12171;SDS011;6149;52.418;13.668;2022-09-09T01:04:47;6.10;;;5.60;;
12171;SDS011;6149;52.418;13.668;2022-09-09T01:07:16;5.30;;;4.83;;
12171;SDS011;6149;52.418;13.668;2022-09-09T01:09:51;6.43;;;5.80;;
12171;SDS011;6149;52.418;13.668;2022-09-09T01:12:25;6.07;;;5.57;;
12171;SDS011;6149;52.418;13.668;2022-09-09T01:15:01;5.37;;;4.83;;
12171;SDS011;6149;52.418;13.668;2022-09-09T01:17:39;6.77;;;5.90;;
12171;SDS011;6149;52.418;13.668;2022-09-09T01:20:16;6.27;;;5.67;;
12171;SDS011;6149;52.418;13.668;2022-09-09T01:22:52;6.33;;;5.83;;
12171;SDS011;6149;52.418;13.668;2022-09-09T01:26:03;6.07;;;5.33;;
12171;SDS011;6149;52.418;13.668;2022-09-09T01:28:51;4.90;;;4.50;;
12171;SDS011;6149;52.418;13.668;2022-09-09T01:31:19;8.60;;;5.17;;
12171;SDS011;6149;52.418;13.668;2022-09-09T01:33:50;5.80;;;5.30;;
12171;SDS011;6149;52.418;13.668;2022-09-09T01:36:19;5.40;;;4.83;;
12171;SDS011;6149;52.418;13.668;2022-09-09T01:38:54;5.73;;;5.13;;
12171;SDS011;6149;52.418;13.668;2022-09-09T01:41:22;5.60;;;5.10;;
12171;SDS011;6149;52.418;13.668;2022-09-09T01:43:49;6.63;;;6.03;;
12171;SDS011;6149;52.418;13.668;2022-09-09T01:46:17;5.13;;;4.70;;
12171;SDS011;6149;52.418;13.668;2022-09-09T01:48:47;5.50;;;5.00;;
12171;SDS011;6149;52.418;13.668;2022-09-09T01:51:15;6.20;;;5.37;;
12171;SDS011;6149;52.418;13.668;2022-09-09T01:53:42;5.50;;;5.00;;
12171;SDS011;6149;52.418;13.668;2022-09-09T01:56:12;5.80;;;5.20;;
12171;SDS011;6149;52.418;13.668;2022-09-09T01:59:01;5.63;;;5.23;;
12171;SDS011;6149;52.418;13.668;2022-09-09T02:01:41;5.97;;;5.43;;
12171;SDS011;6149;52.418;13.668;2022-09-09T02:04:24;4.90;;;4.40;;
12171;SDS011;6149;52.418;13.668;2022-09-09T02:07:02;7.03;;;5.60;;
12171;SDS011;6149;52.418;13.668;2022-09-09T02:09:40;6.73;;;6.00;;
12171;SDS011;6149;52.418;13.668;2022-09-09T02:12:16;6.73;;;6.03;;
12171;SDS011;6149;52.418;13.668;2022-09-09T02:14:47;6.53;;;5.93;;
12171;SDS011;6149;52.418;13.668;2022-09-09T02:17:19;7.13;;;5.87;;
12171;SDS011;6149;52.418;13.668;2022-09-09T02:19:53;6.97;;;5.90;;
12171;SDS011;6149;52.418;13.668;2022-09-09T02:22:29;6.33;;;5.70;;
12171;SDS011;6149;52.418;13.668;2022-09-09T02:24:59;5.40;;;4.90;;
12171;SDS011;6149;52.418;13.668;2022-09-09T02:27:31;6.70;;;6.10;;
12171;SDS011;6149;52.418;13.668;2022-09-09T02:29:59;5.27;;;4.77;;
12171;SDS011;6149;52.418;13.668;2022-09-09T02:32:29;5.70;;;5.13;;
12171;SDS011;6149;52.418;13.668;2022-09-09T02:35:02;6.20;;;5.60;;
12171;SDS011;6149;52.418;13.668;2022-09-09T02:37:34;5.57;;;5.07;;
12171;SDS011;6149;52.418;13.668;2022-09-09T02:40:04;5.90;;;5.20;;
12171;SDS011;6149;52.418;13.668;2022-09-09T02:42:39;5.27;;;4.70;;
12171;SDS011;6149;52.418;13.668;2022-09-09T02:45:07;5.93;;;5.30;;
12171;SDS011;6149;52.418;13.668;2022-09-09T02:47:35;5.13;;;4.70;;
12171;SDS011;6149;52.418;13.668;2022-09-09T02:50:11;5.30;;;4.80;;
12171;SDS011;6149;52.418;13.668;2022-09-09T02:52:45;4.57;;;4.17;;
12171;SDS011;6149;52.418;13.668;2022-09-09T02:55:23;5.73;;;5.23;;
12171;SDS011;6149;52.418;13.668;2022-09-09T02:57:57;5.67;;;4.40;;
12171;SDS011;6149;52.418;13.668;2022-09-09T03:00:26;7.30;;;4.53;;
12171;SDS011;6149;52.418;13.668;2022-09-09T03:02:54;6.77;;;4.70;;
12171;SDS011;6149;52.418;13.668;2022-09-09T03:05:22;6.40;;;5.43;;
12171;SDS011;6149;52.418;13.668;2022-09-09T03:07:48;6.00;;;5.40;;
12171;SDS011;6149;52.418;13.668;2022-09-09T03:10:15;6.13;;;5.13;;
12171;SDS011;6149;52.418;13.668;2022-09-09T03:12:42;7.57;;;5.27;;
12171;SDS011;6149;52.418;13.668;2022-09-09T03:15:10;5.73;;;5.23;;
12171;SDS011;6149;52.418;13.668;2022-09-09T03:17:37;6.57;;;5.97;;
12171;SDS011;6149;52.418;13.668;2022-09-09T03:20:04;6.17;;;5.60;;
12171;SDS011;6149;52.418;13.668;2022-09-09T03:22:32;6.30;;;5.70;;
12171;SDS011;6149;52.418;13.668;2022-09-09T03:24:59;6.03;;;5.43;;
12171;SDS011;6149;52.418;13.668;2022-09-09T03:27:26;5.77;;;5.10;;
12171;SDS011;6149;52.418;13.668;2022-09-09T03:29:53;4.70;;;4.30;;
12171;SDS011;6149;52.418;13.668;2022-09-09T03:32:22;7.20;;;5.67;;
12171;SDS011;6149;52.418;13.668;2022-09-09T03:34:50;6.77;;;5.80;;
12171;SDS011;6149;52.418;13.668;2022-09-09T03:37:18;6.90;;;5.63;;
12171;SDS011;6149;52.418;13.668;2022-09-09T03:39:45;6.33;;;5.70;;
12171;SDS011;6149;52.418;13.668;2022-09-09T03:42:12;6.03;;;4.93;;
12171;SDS011;6149;52.418;13.668;2022-09-09T03:44:43;7.33;;;6.37;;
12171;SDS011;6149;52.418;13.668;2022-09-09T03:47:15;7.37;;;5.93;;
12171;SDS011;6149;52.418;13.668;2022-09-09T03:49:44;6.93;;;6.23;;
12171;SDS011;6149;52.418;13.668;2022-09-09T03:52:11;6.67;;;6.00;;
12171;SDS011;6149;52.418;13.668;2022-09-09T03:54:38;6.33;;;5.73;;
12171;SDS011;6149;52.418;13.668;2022-09-09T03:57:07;7.03;;;6.07;;
12171;SDS011;6149;52.418;13.668;2022-09-09T03:59:34;6.10;;;5.50;;
12171;SDS011;6149;52.418;13.668;2022-09-09T04:02:01;6.50;;;5.80;;
12171;SDS011;6149;52.418;13.668;2022-09-09T04:04:28;8.40;;;5.80;;
12171;SDS011;6149;52.418;13.668;2022-09-09T04:06:56;7.60;;;5.27;;
12171;SDS011;6149;52.418;13.668;2022-09-09T04:09:22;6.90;;;6.20;;
12171;SDS011;6149;52.418;13.668;2022-09-09T04:11:49;7.00;;;6.30;;
12171;SDS011;6149;52.418;13.668;2022-09-09T04:14:16;6.83;;;6.23;;
12171;SDS011;6149;52.418;13.668;2022-09-09T04:16:43;11.07;;;6.17;;
12171;SDS011;6149;52.418;13.668;2022-09-09T04:19:11;7.90;;;7.10;;
12171;SDS011;6149;52.418;13.668;2022-09-09T04:21:39;8.50;;;6.63;;
12171;SDS011;6149;52.418;13.668;2022-09-09T04:24:08;5.73;;;5.17;;
12171;SDS011;6149;52.418;13.668;2022-09-09T04:26:35;7.00;;;5.90;;
12171;SDS011;6149;52.418;13.668;2022-09-09T04:29:03;6.03;;;5.43;;
12171;SDS011;6149;52.418;13.668;2022-09-09T04:31:29;7.63;;;6.83;;
12171;SDS011;6149;52.418;13.668;2022-09-09T04:33:56;5.53;;;5.03;;
12171;SDS011;6149;52.418;13.668;2022-09-09T04:36:23;7.10;;;5.87;;
12171;SDS011;6149;52.418;13.668;2022-09-09T04:38:51;7.10;;;5.80;;
12171;SDS011;6149;52.418;13.668;2022-09-09T04:41:19;7.77;;;5.93;;
12171;SDS011;6149;52.418;13.668;2022-09-09T04:43:46;6.63;;;6.03;;
12171;SDS011;6149;52.418;13.668;2022-09-09T04:46:13;6.63;;;6.03;;
12171;SDS011;6149;52.418;13.668;2022-09-09T04:48:42;6.70;;;6.00;;
12171;SDS011;6149;52.418;13.668;2022-09-09T04:51:10;7.03;;;6.33;;
12171;SDS011;6149;52.418;13.668;2022-09-09T04:53:39;6.87;;;6.17;;
12171;SDS011;6149;52.418;13.668;2022-09-09T04:56:07;8.27;;;6.60;;
12171;SDS011;6149;52.418;13.668;2022-09-09T04:58:37;6.77;;;6.10;;
12171;SDS011;6149;52.418;13.668;2022-09-09T05:01:07;7.63;;;6.47;;
12171;SDS011;6149;52.418;13.668;2022-09-09T05:03:36;6.43;;;5.83;;
12171;SDS011;6149;52.418;13.668;2022-09-09T05:06:04;6.57;;;5.83;;
12171;SDS011;6149;52.418;13.668;2022-09-09T05:08:33;5.73;;;5.23;;
12171;SDS011;6149;52.418;13.668;2022-09-09T05:11:00;12.27;;;7.20;;
12171;SDS011;6149;52.418;13.668;2022-09-09T05:13:27;7.60;;;6.90;;
12171;SDS011;6149;52.418;13.668;2022-09-09T05:15:57;6.33;;;5.73;;
12171;SDS011;6149;52.418;13.668;2022-09-09T05:18:23;8.33;;;7.17;;
12171;SDS011;6149;52.418;13.668;2022-09-09T05:20:50;6.80;;;6.20;;
12171;SDS011;6149;52.418;13.668;2022-09-09T05:23:17;7.77;;;7.07;;
12171;SDS011;6149;52.418;13.668;2022-09-09T05:25:43;10.50;;;9.37;;
12171;SDS011;6149;52.418;13.668;2022-09-09T05:28:21;11.03;;;9.07;;
12171;SDS011;6149;52.418;13.668;2022-09-09T05:30:54;8.50;;;7.70;;
12171;SDS011;6149;52.418;13.668;2022-09-09T05:33:24;8.43;;;7.53;;
12171;SDS011;6149;52.418;13.668;2022-09-09T05:35:55;10.33;;;9.33;;
12171;SDS011;6149;52.418;13.668;2022-09-09T05:38:27;9.63;;;8.77;;
12171;SDS011;6149;52.418;13.668;2022-09-09T05:40:55;11.27;;;9.13;;
12171;SDS011;6149;52.418;13.668;2022-09-09T05:43:22;12.17;;;9.33;;
12171;SDS011;6149;52.418;13.668;2022-09-09T05:45:59;8.07;;;7.27;;
12171;SDS011;6149;52.418;13.668;2022-09-09T05:48:27;9.90;;;8.90;;
12171;SDS011;6149;52.418;13.668;2022-09-09T05:50:55;11.47;;;10.30;;
12171;SDS011;6149;52.418;13.668;2022-09-09T05:53:22;10.20;;;9.23;;
12171;SDS011;6149;52.418;13.668;2022-09-09T05:55:49;12.70;;;8.87;;
12171;SDS011;6149;52.418;13.668;2022-09-09T05:58:15;12.50;;;10.73;;
12171;SDS011;6149;52.418;13.668;2022-09-09T06:00:42;14.53;;;12.73;;
12171;SDS011;6149;52.418;13.668;2022-09-09T06:03:10;16.50;;;13.30;;
12171;SDS011;6149;52.418;13.668;2022-09-09T06:05:37;14.17;;;12.30;;
12171;SDS011;6149;52.418;13.668;2022-09-09T06:08:04;15.93;;;13.43;;
12171;SDS011;6149;52.418;13.668;2022-09-09T06:10:30;15.00;;;13.40;;
12171;SDS011;6149;52.418;13.668;2022-09-09T06:12:59;14.67;;;12.07;;
12171;SDS011;6149;52.418;13.668;2022-09-09T06:15:26;12.80;;;11.43;;
12171;SDS011;6149;52.418;13.668;2022-09-09T06:17:55;13.27;;;11.90;;
12171;SDS011;6149;52.418;13.668;2022-09-09T06:20:23;11.50;;;10.40;;
12171;SDS011;6149;52.418;13.668;2022-09-09T06:22:50;10.27;;;8.43;;
12171;SDS011;6149;52.418;13.668;2022-09-09T06:25:16;8.87;;;7.67;;
12171;SDS011;6149;52.418;13.668;2022-09-09T06:27:47;6.90;;;6.20;;
12171;SDS011;6149;52.418;13.668;2022-09-09T06:30:15;6.83;;;5.77;;
12171;SDS011;6149;52.418;13.668;2022-09-09T06:32:43;5.90;;;5.40;;
12171;SDS011;6149;52.418;13.668;2022-09-09T06:35:10;7.43;;;5.40;;
12171;SDS011;6149;52.418;13.668;2022-09-09T06:37:38;6.20;;;4.80;;
12171;SDS011;6149;52.418;13.668;2022-09-09T06:40:05;8.60;;;4.27;;
12171;SDS011;6149;52.418;13.668;2022-09-09T06:42:33;4.00;;;3.60;;
12171;SDS011;6149;52.418;13.668;2022-09-09T06:44:59;6.23;;;4.20;;
12171;SDS011;6149;52.418;13.668;2022-09-09T06:47:26;5.20;;;4.17;;
12171;SDS011;6149;52.418;13.668;2022-09-09T06:49:54;5.77;;;3.80;;
12171;SDS011;6149;52.418;13.668;2022-09-09T06:52:21;7.00;;;3.23;;
12171;SDS011;6149;52.418;13.668;2022-09-09T06:54:51;4.43;;;3.80;;
12171;SDS011;6149;52.418;13.668;2022-09-09T06:57:18;4.27;;;3.70;;
12171;SDS011;6149;52.418;13.668;2022-09-09T06:59:45;3.70;;;3.00;;
12171;SDS011;6149;52.418;13.668;2022-09-09T07:02:11;4.80;;;3.10;;
12171;SDS011;6149;52.418;13.668;2022-09-09T07:04:38;4.70;;;3.13;;
12171;SDS011;6149;52.418;13.668;2022-09-09T07:07:06;4.43;;;3.50;;
12171;SDS011;6149;52.418;13.668;2022-09-09T07:09:33;5.73;;;3.40;;
12171;SDS011;6149;52.418;13.668;2022-09-09T07:12:01;3.40;;;3.10;;
12171;SDS011;6149;52.418;13.668;2022-09-09T07:14:29;5.47;;;3.93;;
12171;SDS011;6149;52.418;13.668;2022-09-09T07:16:55;7.43;;;3.50;;
12171;SDS011;6149;52.418;13.668;2022-09-09T07:19:22;7.73;;;3.70;;
12171;SDS011;6149;52.418;13.668;2022-09-09T07:21:49;11.30;;;4.00;;
12171;SDS011;6149;52.418;13.668;2022-09-09T07:24:15;5.27;;;2.77;;
12171;SDS011;6149;52.418;13.668;2022-09-09T07:26:42;6.93;;;3.20;;
12171;SDS011;6149;52.418;13.668;2022-09-09T07:29:12;7.33;;;3.20;;
12171;SDS011;6149;52.418;13.668;2022-09-09T07:31:39;3.90;;;2.67;;
12171;SDS011;6149;52.418;13.668;2022-09-09T07:34:06;4.57;;;3.00;;
12171;SDS011;6149;52.418;13.668;2022-09-09T07:36:33;4.80;;;3.03;;
12171;SDS011;6149;52.418;13.668;2022-09-09T07:39:03;10.50;;;3.93;;
12171;SDS011;6149;52.418;13.668;2022-09-09T07:41:32;8.00;;;3.00;;
12171;SDS011;6149;52.418;13.668;2022-09-09T07:44:06;5.53;;;2.60;;
12171;SDS011;6149;52.418;13.668;2022-09-09T07:46:37;9.40;;;3.50;;
12171;SDS011;6149;52.418;13.668;2022-09-09T07:49:06;9.50;;;3.20;;
12171;SDS011;6149;52.418;13.668;2022-09-09T07:51:34;5.03;;;2.80;;
12171;SDS011;6149;52.418;13.668;2022-09-09T07:54:04;3.77;;;2.20;;
12171;SDS011;6149;52.418;13.668;2022-09-09T07:56:34;5.63;;;2.60;;
12171;SDS011;6149;52.418;13.668;2022-09-09T07:59:02;7.10;;;2.70;;
12171;SDS011;6149;52.418;13.668;2022-09-09T08:01:32;11.50;;;2.97;;
12171;SDS011;6149;52.418;13.668;2022-09-09T08:04:06;2.53;;;1.80;;
12171;SDS011;6149;52.418;13.668;2022-09-09T08:06:36;2.27;;;1.80;;
12171;SDS011;6149;52.418;13.668;2022-09-09T08:09:06;4.20;;;1.80;;
12171;SDS011;6149;52.418;13.668;2022-09-09T08:11:34;4.23;;;2.10;;
12171;SDS011;6149;52.418;13.668;2022-09-09T08:14:02;3.13;;;1.77;;
12171;SDS011;6149;52.418;13.668;2022-09-09T08:16:30;3.40;;;2.00;;
12171;SDS011;6149;52.418;13.668;2022-09-09T08:19:01;4.70;;;2.27;;
12171;SDS011;6149;52.418;13.668;2022-09-09T08:21:31;4.37;;;1.77;;
12171;SDS011;6149;52.418;13.668;2022-09-09T08:24:00;4.80;;;2.13;;
12171;SDS011;6149;52.418;13.668;2022-09-09T08:26:28;3.30;;;1.90;;
12171;SDS011;6149;52.418;13.668;2022-09-09T08:28:57;4.57;;;1.90;;
12171;SDS011;6149;52.418;13.668;2022-09-09T08:31:26;2.17;;;1.80;;
12171;SDS011;6149;52.418;13.668;2022-09-09T08:33:54;4.97;;;1.97;;
12171;SDS011;6149;52.418;13.668;2022-09-09T08:36:24;10.53;;;3.20;;
12171;SDS011;6149;52.418;13.668;2022-09-09T08:38:55;16.30;;;3.50;;
12171;SDS011;6149;52.418;13.668;2022-09-09T08:41:30;6.03;;;2.00;;
12171;SDS011;6149;52.418;13.668;2022-09-09T08:44:09;5.33;;;2.20;;
12171;SDS011;6149;52.418;13.668;2022-09-09T08:46:44;5.63;;;2.30;;
12171;SDS011;6149;52.418;13.668;2022-09-09T08:49:24;4.97;;;1.90;;
12171;SDS011;6149;52.418;13.668;2022-09-09T08:52:08;7.07;;;2.43;;
12171;SDS011;6149;52.418;13.668;2022-09-09T08:54:45;4.70;;;2.40;;
12171;SDS011;6149;52.418;13.668;2022-09-09T08:57:14;6.00;;;2.17;;
12171;SDS011;6149;52.418;13.668;2022-09-09T08:59:56;5.27;;;1.80;;
12171;SDS011;6149;52.418;13.668;2022-09-09T09:02:23;5.67;;;2.20;;
12171;SDS011;6149;52.418;13.668;2022-09-09T09:05:02;2.93;;;1.70;;
12171;SDS011;6149;52.418;13.668;2022-09-09T09:07:45;5.27;;;1.87;;
12171;SDS011;6149;52.418;13.668;2022-09-09T09:10:25;4.47;;;2.03;;
12171;SDS011;6149;52.418;13.668;2022-09-09T09:13:07;3.70;;;1.70;;
12171;SDS011;6149;52.418;13.668;2022-09-09T09:15:41;3.10;;;1.60;;
12171;SDS011;6149;52.418;13.668;2022-09-09T09:18:10;2.80;;;1.80;;
12171;SDS011;6149;52.418;13.668;2022-09-09T09:20:42;2.70;;;1.70;;
12171;SDS011;6149;52.418;13.668;2022-09-09T09:23:21;3.07;;;1.70;;
12171;SDS011;6149;52.418;13.668;2022-09-09T09:25:54;4.67;;;1.60;;
12171;SDS011;6149;52.418;13.668;2022-09-09T09:28:26;4.70;;;1.67;;
12171;SDS011;6149;52.418;13.668;2022-09-09T09:30:56;5.93;;;1.90;;
12171;SDS011;6149;52.418;13.668;2022-09-09T09:33:27;3.67;;;1.80;;
12171;SDS011;6149;52.418;13.668;2022-09-09T09:36:01;3.10;;;1.70;;
12171;SDS011;6149;52.418;13.668;2022-09-09T09:38:33;4.00;;;1.70;;
12171;SDS011;6149;52.418;13.668;2022-09-09T09:41:01;5.00;;;1.90;;
12171;SDS011;6149;52.418;13.668;2022-09-09T09:43:29;5.93;;;1.60;;
12171;SDS011;6149;52.418;13.668;2022-09-09T09:45:58;4.13;;;1.70;;
12171;SDS011;6149;52.418;13.668;2022-09-09T09:48:26;1.90;;;1.50;;
12171;SDS011;6149;52.418;13.668;2022-09-09T09:50:54;3.10;;;1.60;;
12171;SDS011;6149;52.418;13.668;2022-09-09T09:53:25;4.90;;;1.80;;
12171;SDS011;6149;52.418;13.668;2022-09-09T09:55:55;4.03;;;1.80;;
12171;SDS011;6149;52.418;13.668;2022-09-09T09:58:27;2.50;;;1.50;;
12171;SDS011;6149;52.418;13.668;2022-09-09T10:00:59;3.00;;;1.80;;
12171;SDS011;6149;52.418;13.668;2022-09-09T10:03:27;2.40;;;1.67;;
12171;SDS011;6149;52.418;13.668;2022-09-09T10:05:56;3.73;;;1.63;;
12171;SDS011;6149;52.418;13.668;2022-09-09T10:08:23;3.03;;;1.47;;
12171;SDS011;6149;52.418;13.668;2022-09-09T10:10:58;3.43;;;1.57;;
12171;SDS011;6149;52.418;13.668;2022-09-09T10:13:38;2.87;;;1.70;;
12171;SDS011;6149;52.418;13.668;2022-09-09T10:16:19;2.93;;;1.50;;
12171;SDS011;6149;52.418;13.668;2022-09-09T10:18:58;6.47;;;1.80;;
12171;SDS011;6149;52.418;13.668;2022-09-09T10:21:32;4.50;;;1.60;;
12171;SDS011;6149;52.418;13.668;2022-09-09T10:24:25;10.07;;;2.20;;
12171;SDS011;6149;52.418;13.668;2022-09-09T10:27:10;6.47;;;2.00;;
12171;SDS011;6149;52.418;13.668;2022-09-09T10:30:00;2.90;;;1.37;;
12171;SDS011;6149;52.418;13.668;2022-09-09T10:32:41;3.70;;;1.50;;
12171;SDS011;6149;52.418;13.668;2022-09-09T10:35:27;3.83;;;1.50;;
12171;SDS011;6149;52.418;13.668;2022-09-09T10:38:09;4.03;;;1.63;;
12171;SDS011;6149;52.418;13.668;2022-09-09T10:40:46;3.73;;;1.57;;
12171;SDS011;6149;52.418;13.668;2022-09-09T10:43:36;2.17;;;1.13;;
12171;SDS011;6149;52.418;13.668;2022-09-09T10:46:19;3.47;;;1.50;;
12171;SDS011;6149;52.418;13.668;2022-09-09T10:48:57;2.23;;;1.30;;
12171;SDS011;6149;52.418;13.668;2022-09-09T10:51:39;4.33;;;1.50;;
12171;SDS011;6149;52.418;13.668;2022-09-09T10:54:25;2.77;;;1.40;;
12171;SDS011;6149;52.418;13.668;2022-09-09T10:57:06;3.37;;;1.53;;
12171;SDS011;6149;52.418;13.668;2022-09-09T10:59:40;2.57;;;1.20;;
12171;SDS011;6149;52.418;13.668;2022-09-09T11:02:15;3.00;;;1.40;;
12171;SDS011;6149;52.418;13.668;2022-09-09T11:04:48;3.77;;;1.40;;
12171;SDS011;6149;52.418;13.668;2022-09-09T11:07:22;3.07;;;1.50;;
12171;SDS011;6149;52.418;13.668;2022-09-09T11:09:58;3.27;;;1.60;;
12171;SDS011;6149;52.418;13.668;2022-09-09T11:12:29;3.53;;;1.90;;
12171;SDS011;6149;52.418;13.668;2022-09-09T11:14:59;2.80;;;1.40;;
12171;SDS011;6149;52.418;13.668;2022-09-09T11:17:36;4.50;;;1.67;;
12171;SDS011;6149;52.418;13.668;2022-09-09T11:20:11;4.33;;;2.57;;
12171;SDS011;6149;52.418;13.668;2022-09-09T11:22:42;7.10;;;2.00;;
12171;SDS011;6149;52.418;13.668;2022-09-09T11:25:15;7.53;;;2.27;;
12171;SDS011;6149;52.418;13.668;2022-09-09T11:27:50;4.27;;;1.63;;
12171;SDS011;6149;52.418;13.668;2022-09-09T11:30:33;15.13;;;2.80;;
12171;SDS011;6149;52.418;13.668;2022-09-09T11:36:36;8.97;;;2.27;;
12171;SDS011;6149;52.418;13.668;2022-09-09T11:39:38;2.40;;;1.30;;
12171;SDS011;6149;52.418;13.668;2022-09-09T11:42:23;2.80;;;1.60;;
12171;SDS011;6149;52.418;13.668;2022-09-09T11:44:50;2.93;;;1.57;;
12171;SDS011;6149;52.418;13.668;2022-09-09T11:47:21;4.47;;;1.50;;
12171;SDS011;6149;52.418;13.668;2022-09-09T11:50:06;5.17;;;1.50;;
12171;SDS011;6149;52.418;13.668;2022-09-09T11:52:36;5.63;;;1.60;;
12171;SDS011;6149;52.418;13.668;2022-09-09T11:55:08;3.40;;;1.50;;
12171;SDS011;6149;52.418;13.668;2022-09-09T11:57:37;4.00;;;1.20;;
12171;SDS011;6149;52.418;13.668;2022-09-09T12:00:06;5.77;;;1.63;;
12171;SDS011;6149;52.418;13.668;2022-09-09T12:02:54;5.27;;;1.37;;
12171;SDS011;6149;52.418;13.668;2022-09-09T12:05:22;4.50;;;1.47;;
12171;SDS011;6149;52.418;13.668;2022-09-09T12:07:50;2.87;;;1.07;;
12171;SDS011;6149;52.418;13.668;2022-09-09T12:10:22;4.30;;;1.10;;
12171;SDS011;6149;52.418;13.668;2022-09-09T12:12:52;6.00;;;1.50;;
12171;SDS011;6149;52.418;13.668;2022-09-09T12:15:20;2.33;;;1.00;;
12171;SDS011;6149;52.418;13.668;2022-09-09T12:17:53;1.93;;;1.00;;
12171;SDS011;6149;52.418;13.668;2022-09-09T12:20:26;2.63;;;1.10;;
12171;SDS011;6149;52.418;13.668;2022-09-09T12:23:18;2.53;;;1.10;;
12171;SDS011;6149;52.418;13.668;2022-09-09T12:26:03;3.23;;;1.50;;
12171;SDS011;6149;52.418;13.668;2022-09-09T12:28:49;3.47;;;1.10;;
12171;SDS011;6149;52.418;13.668;2022-09-09T12:31:24;4.60;;;1.40;;
12171;SDS011;6149;52.418;13.668;2022-09-09T12:34:02;3.63;;;1.50;;
12171;SDS011;6149;52.418;13.668;2022-09-09T12:36:38;3.13;;;1.20;;
12171;SDS011;6149;52.418;13.668;2022-09-09T12:39:15;3.87;;;1.20;;
12171;SDS011;6149;52.418;13.668;2022-09-09T12:41:50;4.43;;;1.60;;
12171;SDS011;6149;52.418;13.668;2022-09-09T12:44:22;3.87;;;1.30;;
12171;SDS011;6149;52.418;13.668;2022-09-09T12:46:49;6.00;;;1.50;;
12171;SDS011;6149;52.418;13.668;2022-09-09T12:49:25;2.23;;;1.10;;
12171;SDS011;6149;52.418;13.668;2022-09-09T12:52:00;2.87;;;1.37;;
12171;SDS011;6149;52.418;13.668;2022-09-09T12:54:30;4.97;;;1.80;;
12171;SDS011;6149;52.418;13.668;2022-09-09T12:56:57;5.10;;;1.47;;
12171;SDS011;6149;52.418;13.668;2022-09-09T12:59:25;2.73;;;1.30;;
12171;SDS011;6149;52.418;13.668;2022-09-09T13:02:01;4.33;;;1.30;;
12171;SDS011;6149;52.418;13.668;2022-09-09T13:04:27;3.57;;;1.17;;
12171;SDS011;6149;52.418;13.668;2022-09-09T13:07:05;2.57;;;1.40;;
12171;SDS011;6149;52.418;13.668;2022-09-09T13:09:42;3.20;;;1.70;;
12171;SDS011;6149;52.418;13.668;2022-09-09T13:12:11;2.80;;;1.40;;
12171;SDS011;6149;52.418;13.668;2022-09-09T13:14:42;3.87;;;1.60;;
12171;SDS011;6149;52.418;13.668;2022-09-09T13:17:15;4.17;;;1.27;;
12171;SDS011;6149;52.418;13.668;2022-09-09T13:19:46;2.93;;;1.50;;
12171;SDS011;6149;52.418;13.668;2022-09-09T13:22:20;4.67;;;1.27;;
12171;SDS011;6149;52.418;13.668;2022-09-09T13:25:00;1.80;;;0.90;;
12171;SDS011;6149;52.418;13.668;2022-09-09T13:27:31;2.77;;;1.03;;
12171;SDS011;6149;52.418;13.668;2022-09-09T13:29:59;2.50;;;1.10;;
12171;SDS011;6149;52.418;13.668;2022-09-09T13:32:27;1.87;;;0.87;;
12171;SDS011;6149;52.418;13.668;2022-09-09T13:34:56;2.60;;;1.03;;
12171;SDS011;6149;52.418;13.668;2022-09-09T13:37:29;3.03;;;1.17;;
12171;SDS011;6149;52.418;13.668;2022-09-09T13:40:01;2.27;;;1.17;;
12171;SDS011;6149;52.418;13.668;2022-09-09T13:42:30;2.63;;;1.10;;
12171;SDS011;6149;52.418;13.668;2022-09-09T13:45:14;1.73;;;0.90;;
12171;SDS011;6149;52.418;13.668;2022-09-09T13:47:45;2.93;;;1.10;;
12171;SDS011;6149;52.418;13.668;2022-09-09T13:50:19;2.57;;;1.20;;
12171;SDS011;6149;52.418;13.668;2022-09-09T13:52:47;4.10;;;1.40;;
12171;SDS011;6149;52.418;13.668;2022-09-09T13:55:16;7.93;;;2.10;;
12171;SDS011;6149;52.418;13.668;2022-09-09T13:57:49;7.13;;;1.80;;
12171;SDS011;6149;52.418;13.668;2022-09-09T14:00:17;5.73;;;1.70;;
12171;SDS011;6149;52.418;13.668;2022-09-09T14:02:44;4.43;;;1.40;;
12171;SDS011;6149;52.418;13.668;2022-09-09T14:05:11;3.97;;;1.23;;
12171;SDS011;6149;52.418;13.668;2022-09-09T14:07:38;2.17;;;1.20;;
12171;SDS011;6149;52.418;13.668;2022-09-09T14:10:08;4.97;;;1.70;;
12171;SDS011;6149;52.418;13.668;2022-09-09T14:12:36;5.37;;;1.30;;
12171;SDS011;6149;52.418;13.668;2022-09-09T14:15:03;3.80;;;1.50;;
12171;SDS011;6149;52.418;13.668;2022-09-09T14:17:31;3.93;;;1.50;;
12171;SDS011;6149;52.418;13.668;2022-09-09T14:19:58;4.57;;;1.30;;
12171;SDS011;6149;52.418;13.668;2022-09-09T14:22:25;3.80;;;1.20;;
12171;SDS011;6149;52.418;13.668;2022-09-09T14:24:52;2.50;;;1.20;;
12171;SDS011;6149;52.418;13.668;2022-09-09T14:27:19;3.10;;;1.20;;
12171;SDS011;6149;52.418;13.668;2022-09-09T14:29:46;2.57;;;1.30;;
12171;SDS011;6149;52.418;13.668;2022-09-09T14:32:12;2.73;;;1.23;;
12171;SDS011;6149;52.418;13.668;2022-09-09T14:34:39;3.37;;;1.30;;
12171;SDS011;6149;52.418;13.668;2022-09-09T14:37:05;3.17;;;1.30;;
12171;SDS011;6149;52.418;13.668;2022-09-09T14:39:32;4.13;;;1.30;;
12171;SDS011;6149;52.418;13.668;2022-09-09T14:41:59;5.73;;;1.57;;
12171;SDS011;6149;52.418;13.668;2022-09-09T14:44:27;3.23;;;1.20;;
12171;SDS011;6149;52.418;13.668;2022-09-09T14:46:54;3.77;;;1.57;;
12171;SDS011;6149;52.418;13.668;2022-09-09T14:49:21;3.10;;;1.40;;
12171;SDS011;6149;52.418;13.668;2022-09-09T14:51:47;1.50;;;1.13;;
12171;SDS011;6149;52.418;13.668;2022-09-09T14:54:14;1.63;;;1.00;;
12171;SDS011;6149;52.418;13.668;2022-09-09T14:56:41;3.27;;;1.30;;
12171;SDS011;6149;52.418;13.668;2022-09-09T14:59:07;2.70;;;1.00;;
12171;SDS011;6149;52.418;13.668;2022-09-09T15:01:35;2.43;;;1.30;;
12171;SDS011;6149;52.418;13.668;2022-09-09T15:04:03;3.40;;;1.60;;
12171;SDS011;6149;52.418;13.668;2022-09-09T15:06:31;2.07;;;1.30;;
12171;SDS011;6149;52.418;13.668;2022-09-09T15:09:03;1.33;;;1.10;;
12171;SDS011;6149;52.418;13.668;2022-09-09T15:11:31;2.30;;;1.00;;
12171;SDS011;6149;52.418;13.668;2022-09-09T15:14:02;2.33;;;1.00;;
12171;SDS011;6149;52.418;13.668;2022-09-09T15:16:30;2.43;;;1.10;;